Time;durP1;ratioP1;P1;durP2;ratioP2;P2;SDS_P1;SDS_P2;PMS_P1;PMS_P2;Temp;Humidity;BMP_temperature;BMP_pressure;BME280_temperature;BME280_humidity;BME280_pressure;Samples;Min_cycle;Max_cycle;Signal;HPM_P1;HPM_P2
2022/09/12 00:01:58;;;;;;;32.63;14.90;;;11.30;99.90;;;;;;5026370;28;20034;-63
2022/09/12 00:04:23;;;;;;;31.20;12.82;;;11.20;99.90;;;;;;5026852;28;20104;-63
2022/09/12 00:06:49;;;;;;;31.73;13.57;;;11.10;99.90;;;;;;5022368;28;20041;-63
2022/09/12 00:09:15;;;;;;;32.88;14.05;;;11.00;99.90;;;;;;5022668;28;20029;-63
2022/09/12 00:11:44;;;;;;;35.28;13.95;;;11.10;99.90;;;;;;5023761;28;20041;-63
2022/09/12 00:14:13;;;;;;;32.97;14.30;;;11.20;99.90;;;;;;5027718;28;20052;-63
2022/09/12 00:16:39;;;;;;;35.35;14.68;;;11.20;99.90;;;;;;5026331;28;20028;-63
2022/09/12 00:19:06;;;;;;;36.60;15.05;;;11.10;99.90;;;;;;5020791;28;20045;-63
2022/09/12 00:21:33;;;;;;;31.42;14.50;;;11.10;99.90;;;;;;5026896;28;20405;-63
2022/09/12 00:23:59;;;;;;;34.13;14.40;;;11.10;99.90;;;;;;5026242;28;20090;-63
2022/09/12 00:26:25;;;;;;;37.17;14.98;;;11.10;99.90;;;;;;5023476;28;20101;-63
2022/09/12 00:28:51;;;;;;;32.30;14.63;;;11.00;99.90;;;;;;5025822;28;20064;-63
2022/09/12 00:31:20;;;;;;;39.03;14.55;;;10.90;99.90;;;;;;5026394;28;20056;-63
2022/09/12 00:33:46;;;;;;;39.28;15.70;;;10.70;99.90;;;;;;5024079;28;20184;-63
2022/09/12 00:36:14;;;;;;;33.55;15.13;;;10.80;99.90;;;;;;5026707;28;20104;-63
2022/09/12 00:38:41;;;;;;;36.08;16.02;;;10.90;99.90;;;;;;5021847;28;20029;-63
2022/09/12 00:41:21;;;;;;;37.60;15.15;;;10.90;99.90;;;;;;5020440;28;20501;-63
2022/09/12 00:43:50;;;;;;;33.67;14.73;;;10.90;99.90;;;;;;5021937;28;20037;-63
2022/09/12 00:46:28;;;;;;;38.97;15.75;;;10.80;99.90;;;;;;5025141;28;20040;-63
2022/09/12 00:49:04;;;;;;;38.38;15.77;;;10.70;99.90;;;;;;5025573;28;20451;-63
2022/09/12 00:51:32;;;;;;;39.42;14.15;;;10.70;99.90;;;;;;5022862;28;20033;-63
2022/09/12 00:54:01;;;;;;;33.30;14.18;;;10.80;99.90;;;;;;5024738;28;20689;-63
2022/09/12 00:56:27;;;;;;;37.97;14.88;;;10.70;99.90;;;;;;5043758;28;20163;-63
2022/09/12 00:59:09;;;;;;;38.95;15.57;;;10.80;99.90;;;;;;5025174;28;20014;-63
2022/09/12 01:01:35;;;;;;;34.35;14.73;;;10.90;99.90;;;;;;5025796;28;20041;-64
2022/09/12 01:04:02;;;;;;;34.63;15.27;;;10.90;99.90;;;;;;5027037;28;20219;-64
2022/09/12 01:06:34;;;;;;;43.25;16.20;;;10.80;99.90;;;;;;5026178;28;20036;-63
2022/09/12 01:09:03;;;;;;;37.58;14.90;;;10.80;99.90;;;;;;5025264;28;20021;-63
2022/09/12 01:11:35;;;;;;;38.90;14.55;;;10.90;99.90;;;;;;5016786;28;20026;-63
2022/09/12 01:14:00;;;;;;;37.50;15.07;;;11.00;99.90;;;;;;5015378;28;20425;-63
2022/09/12 01:16:26;;;;;;;34.13;14.63;;;10.90;99.90;;;;;;5029138;28;20078;-63
2022/09/12 01:19:19;;;;;;;39.50;15.63;;;10.80;99.90;;;;;;5019792;28;20433;-63
2022/09/12 01:22:04;;;;;;;40.17;15.63;;;10.80;99.90;;;;;;5027111;28;20394;-63
2022/09/12 01:24:36;;;;;;;36.13;14.57;;;10.80;99.90;;;;;;5027104;28;20033;-63
2022/09/12 01:27:40;;;;;;;39.95;15.27;;;10.70;99.90;;;;;;5026796;28;20022;-63
2022/09/12 01:30:20;;;;;;;39.45;14.98;;;10.60;99.90;;;;;;5028653;28;20112;-63
2022/09/12 01:32:45;;;;;;;;;;;10.60;99.90;;;;;;5024218;28;20029;-63
2022/09/12 01:35:47;;;;;;;36.42;14.80;;;10.60;99.90;;;;;;5030125;28;19905;-63
2022/09/12 01:38:37;;;;;;;34.75;15.18;;;10.60;99.90;;;;;;5027410;28;20037;-63
2022/09/12 01:41:11;;;;;;;40.30;15.75;;;10.60;99.90;;;;;;5028198;28;20065;-63
2022/09/12 01:43:47;;;;;;;35.65;13.75;;;10.50;99.90;;;;;;5030378;28;20060;-62
2022/09/12 01:46:23;;;;;;;35.40;14.35;;;10.50;99.90;;;;;;5044171;28;20029;-63
2022/09/12 01:49:14;;;;;;;43.05;16.42;;;10.50;99.90;;;;;;5028312;28;20111;-63
2022/09/12 01:51:57;;;;;;;42.10;15.02;;;10.60;99.90;;;;;;5024755;28;20777;-63
2022/09/12 01:54:31;;;;;;;35.13;15.10;;;10.60;99.90;;;;;;5019753;28;20064;-63
2022/09/12 01:57:02;;;;;;;34.17;14.63;;;10.50;99.90;;;;;;5026217;28;20036;-63
2022/09/12 01:59:39;;;;;;;33.67;14.13;;;10.50;99.90;;;;;;5027136;28;20117;-63
2022/09/12 02:02:20;;;;;;;38.83;14.88;;;10.50;99.90;;;;;;5026217;28;20155;-63
2022/09/12 02:05:08;;;;;;;39.85;15.43;;;10.60;99.90;;;;;;5028100;28;20033;-63
2022/09/12 02:07:46;;;;;;;37.83;14.80;;;10.70;99.90;;;;;;5026367;28;20033;-62
2022/09/12 02:10:22;;;;;;;35.92;14.10;;;10.70;99.90;;;;;;5025620;28;20029;-63
2022/09/12 02:13:08;;;;;;;33.20;13.85;;;10.60;99.90;;;;;;5019354;28;20022;-63
2022/09/12 02:15:39;;;;;;;37.50;15.23;;;10.50;99.90;;;;;;5027358;28;20025;-63
2022/09/12 02:18:06;;;;;;;36.55;15.20;;;10.50;99.90;;;;;;5028249;28;20100;-63
2022/09/12 02:20:38;;;;;;;39.92;14.68;;;10.50;99.90;;;;;;5040478;28;20136;-63
2022/09/12 02:23:10;;;;;;;40.28;14.70;;;10.50;99.90;;;;;;5023826;28;20075;-63
2022/09/12 02:25:41;;;;;;;34.08;13.50;;;10.50;99.90;;;;;;5020240;28;20036;-63
2022/09/12 02:28:16;;;;;;;38.20;15.48;;;10.50;99.90;;;;;;5028518;28;20159;-63
2022/09/12 02:31:09;;;;;;;36.42;14.45;;;10.40;99.90;;;;;;5022436;28;20103;-63
2022/09/12 02:33:53;;;;;;;34.33;13.55;;;10.40;99.90;;;;;;5024147;28;20083;-63
2022/09/12 02:36:38;;;;;;;41.00;14.32;;;10.40;99.90;;;;;;5021470;28;20021;-63
2022/09/12 02:39:05;;;;;;;34.50;14.48;;;10.40;99.90;;;;;;5020172;28;20354;-63
2022/09/12 02:41:30;;;;;;;36.05;14.25;;;10.40;99.90;;;;;;5026689;28;20072;-63
2022/09/12 02:43:56;;;;;;;34.47;13.75;;;10.40;99.90;;;;;;5027869;28;20702;-63
2022/09/12 02:46:27;;;;;;;34.00;14.27;;;10.30;99.90;;;;;;5023761;28;20668;-63
2022/09/12 02:48:54;;;;;;;34.33;15.73;;;10.30;99.90;;;;;;5023671;28;20032;-63
2022/09/12 02:51:20;;;;;;;36.50;15.40;;;10.40;99.90;;;;;;5024216;28;20029;-63
2022/09/12 02:53:46;;;;;;;36.63;15.02;;;10.50;99.90;;;;;;5026596;28;20036;-63
2022/09/12 02:56:20;;;;;;;39.47;15.55;;;10.70;99.90;;;;;;5018232;28;20022;-63
2022/09/12 02:58:46;;;;;;;36.30;14.93;;;11.00;99.90;;;;;;5027386;28;20116;-63
2022/09/12 03:01:35;;;;;;;40.45;15.88;;;11.00;99.90;;;;;;5021511;28;20562;-63
2022/09/12 03:04:28;;;;;;;41.63;16.05;;;11.10;99.90;;;;;;5025815;28;20029;-63
2022/09/12 03:07:32;;;;;;;33.45;13.93;;;11.10;99.90;;;;;;5022377;28;20090;-63
2022/09/12 03:10:22;;;;;;;39.03;15.25;;;11.10;99.90;;;;;;5024899;28;20064;-63
2022/09/12 03:12:55;;;;;;;37.80;15.00;;;11.00;99.90;;;;;;5022508;28;20026;-63
2022/09/12 03:15:48;;;;;;;34.58;14.48;;;10.90;99.90;;;;;;5024421;28;20481;-63
2022/09/12 03:18:48;;;;;;;32.78;14.18;;;10.70;99.90;;;;;;5021418;28;20022;-63
2022/09/12 03:21:40;;;;;;;33.03;13.93;;;10.60;99.90;;;;;;5024373;28;20073;-63
2022/09/12 03:24:17;;;;;;;30.42;13.45;;;10.50;99.90;;;;;;5021109;28;20042;-63
2022/09/12 03:27:02;;;;;;;37.90;14.52;;;10.40;99.90;;;;;;5026475;28;20029;-63
2022/09/12 03:29:29;;;;;;;32.25;13.77;;;10.30;99.90;;;;;;5023079;28;20025;-63
2022/09/12 03:31:57;;;;;;;31.17;13.52;;;10.20;99.90;;;;;;5019050;28;20030;-62
2022/09/12 03:34:25;;;;;;;34.45;13.93;;;10.30;99.90;;;;;;5019413;28;20132;-63
2022/09/12 03:36:54;;;;;;;37.30;14.90;;;10.30;99.90;;;;;;5027592;28;20025;-63
2022/09/12 03:39:23;;;;;;;40.47;14.93;;;10.40;99.90;;;;;;5027695;28;20147;-63
2022/09/12 03:41:49;;;;;;;31.35;14.10;;;10.40;99.90;;;;;;5025243;28;20087;-62
2022/09/12 03:44:14;;;;;;;32.97;13.70;;;10.40;99.90;;;;;;5042629;28;20515;-63
2022/09/12 03:46:40;;;;;;;36.40;14.60;;;10.40;99.90;;;;;;5028057;28;20441;-63
2022/09/12 03:49:06;;;;;;;36.05;14.32;;;10.40;99.90;;;;;;5026507;28;20034;-62
2022/09/12 03:51:31;;;;;;;33.58;15.35;;;10.70;99.90;;;;;;5017884;28;20484;-63
2022/09/12 03:53:57;;;;;;;35.72;15.38;;;10.80;99.90;;;;;;5022911;28;20041;-63
2022/09/12 03:56:22;;;;;;;33.95;15.20;;;11.10;99.90;;;;;;5026839;28;20022;-63
2022/09/12 03:58:48;;;;;;;38.53;16.20;;;11.20;99.90;;;;;;5018479;28;20095;-63
2022/09/12 04:01:18;;;;;;;39.75;15.38;;;11.20;99.90;;;;;;5026025;28;20131;-63
2022/09/12 04:03:49;;;;;;;32.35;14.93;;;11.40;99.90;;;;;;5020279;28;20037;-63
2022/09/12 04:06:17;;;;;;;36.08;15.07;;;11.50;99.90;;;;;;5036423;28;20025;-63
2022/09/12 04:08:46;;;;;;;33.08;14.18;;;11.50;99.90;;;;;;5021523;28;20044;-63
2022/09/12 04:11:14;;;;;;;29.15;13.30;;;11.70;99.90;;;;;;5017785;28;20030;-63
2022/09/12 04:13:42;;;;;;;31.33;14.10;;;11.80;99.90;;;;;;5026231;28;20071;-62
2022/09/12 04:16:08;;;;;;;29.13;14.15;;;11.80;99.90;;;;;;5020814;28;20121;-63
2022/09/12 04:18:34;;;;;;;34.63;13.95;;;11.80;99.90;;;;;;5023674;28;20041;-62
2022/09/12 04:21:05;;;;;;;31.13;13.27;;;11.80;99.90;;;;;;5025396;28;20041;-63
2022/09/12 04:23:30;;;;;;;32.40;13.68;;;11.80;99.90;;;;;;5025657;28;20025;-63
2022/09/12 04:25:58;;;;;;;28.52;11.85;;;11.80;99.90;;;;;;5026652;28;20583;-62
2022/09/12 04:28:25;;;;;;;31.15;13.05;;;11.80;99.90;;;;;;5023552;28;20381;-62
2022/09/12 04:30:50;;;;;;;30.67;13.13;;;11.80;99.90;;;;;;5024999;28;20436;-63
2022/09/12 04:33:17;;;;;;;26.98;12.45;;;11.80;99.90;;;;;;5026287;28;20037;-63
2022/09/12 04:35:44;;;;;;;27.33;12.38;;;11.70;99.90;;;;;;5024261;28;20036;-63
2022/09/12 04:38:10;;;;;;;27.77;12.82;;;11.80;99.90;;;;;;5024654;28;20025;-63
2022/09/12 04:40:36;;;;;;;23.98;11.23;;;11.80;99.90;;;;;;5022748;28;20087;-63
2022/09/12 04:43:02;;;;;;;22.90;11.35;;;11.90;99.90;;;;;;5023274;28;20114;-63
2022/09/12 04:45:28;;;;;;;25.65;11.82;;;11.90;99.90;;;;;;5025165;28;20435;-63
2022/09/12 04:47:53;;;;;;;21.67;10.85;;;11.90;99.90;;;;;;5024728;28;20022;-63
2022/09/12 04:50:19;;;;;;;25.15;11.30;;;11.90;99.90;;;;;;5027899;28;20095;-63
2022/09/12 04:52:52;;;;;;;25.75;11.98;;;11.90;99.90;;;;;;5029055;28;20052;-63
2022/09/12 04:55:18;;;;;;;21.95;11.18;;;11.80;99.90;;;;;;5029446;28;20017;-63
2022/09/12 04:57:44;;;;;;;21.13;10.35;;;11.70;99.90;;;;;;5043682;28;20036;-63
2022/09/12 05:00:14;;;;;;;22.42;10.88;;;11.70;99.90;;;;;;5030747;28;20022;-63
2022/09/12 05:02:40;;;;;;;19.73;9.73;;;11.70;99.90;;;;;;5027903;28;20140;-63
2022/09/12 05:05:07;;;;;;;24.60;10.70;;;11.70;99.90;;;;;;5027503;28;20057;-64
2022/09/12 05:07:33;;;;;;;22.45;10.65;;;11.60;99.90;;;;;;5028810;28;20040;-63
2022/09/12 05:09:59;;;;;;;20.70;9.55;;;11.60;99.90;;;;;;5028745;28;20726;-63
2022/09/12 05:12:25;;;;;;;20.88;9.57;;;11.60;99.90;;;;;;5040415;28;20072;-63
2022/09/12 05:14:50;;;;;;;20.60;10.45;;;11.50;99.90;;;;;;5012021;28;20025;-63
2022/09/12 05:17:16;;;;;;;20.75;10.25;;;11.50;99.90;;;;;;5029272;28;20025;-63
2022/09/12 05:19:42;;;;;;;25.85;10.45;;;11.30;99.90;;;;;;5029701;28;20029;-63
2022/09/12 05:22:08;;;;;;;22.23;10.15;;;11.30;99.90;;;;;;5027513;28;20108;-63
2022/09/12 05:24:34;;;;;;;23.70;10.68;;;11.20;99.90;;;;;;5027224;28;20034;-63
2022/09/12 05:27:01;;;;;;;21.85;11.30;;;11.20;99.90;;;;;;5043217;28;20036;-63
2022/09/12 05:29:26;;;;;;;21.23;10.05;;;11.30;99.90;;;;;;5028149;28;20120;-63
2022/09/12 05:31:52;;;;;;;20.98;10.40;;;11.30;99.90;;;;;;5042284;28;20632;-63
2022/09/12 05:34:19;;;;;;;21.55;10.38;;;11.40;99.90;;;;;;5028852;28;20022;-63
2022/09/12 05:36:44;;;;;;;21.17;10.55;;;11.60;99.90;;;;;;5030624;28;20018;-63
2022/09/12 05:39:10;;;;;;;21.52;10.40;;;11.80;99.90;;;;;;5026586;28;20476;-63
2022/09/12 05:41:36;;;;;;;23.20;10.65;;;11.80;99.90;;;;;;5041824;28;20026;-63
2022/09/12 05:44:05;;;;;;;21.08;10.68;;;11.80;99.90;;;;;;5032261;28;20029;-63
2022/09/12 05:46:39;;;;;;;20.10;10.35;;;11.80;99.90;;;;;;5043196;28;20045;-63
2022/09/12 05:49:06;;;;;;;19.45;10.02;;;11.90;99.90;;;;;;5026919;28;20061;-63
2022/09/12 05:51:36;;;;;;;21.08;9.98;;;11.90;99.90;;;;;;5027039;28;20044;-63
2022/09/12 05:54:03;;;;;;;;;;;11.90;99.90;;;;;;5027799;28;20104;-63
2022/09/12 05:56:32;;;;;;;21.98;10.07;;;12.00;99.90;;;;;;5027435;28;19943;-63
2022/09/12 05:59:00;;;;;;;20.58;10.35;;;12.00;99.90;;;;;;5028449;28;20030;-63
2022/09/12 06:01:28;;;;;;;23.90;11.68;;;12.10;99.90;;;;;;5041592;28;20108;-63
2022/09/12 06:03:56;;;;;;;22.73;11.05;;;12.20;99.90;;;;;;5023446;28;20025;-64
2022/09/12 06:06:23;;;;;;;26.15;11.57;;;12.20;99.90;;;;;;5023430;28;20457;-63
2022/09/12 06:08:51;;;;;;;22.02;10.50;;;12.30;99.90;;;;;;5016867;28;20539;-62
2022/09/12 06:11:19;;;;;;;25.25;11.43;;;12.30;99.90;;;;;;5025104;28;20111;-64
2022/09/12 06:13:45;;;;;;;23.42;11.73;;;12.40;99.90;;;;;;5025892;28;20029;-63
2022/09/12 06:16:14;;;;;;;24.80;11.43;;;12.50;99.90;;;;;;5027371;28;20035;-63
2022/09/12 06:18:41;;;;;;;22.10;10.30;;;12.50;99.90;;;;;;5030518;28;20026;-63
2022/09/12 06:21:11;;;;;;;25.23;11.40;;;12.70;99.90;;;;;;5029443;28;20103;-64
2022/09/12 06:23:38;;;;;;;23.40;10.40;;;12.80;99.90;;;;;;5023800;28;20435;-63
2022/09/12 06:26:06;;;;;;;22.95;10.23;;;13.00;99.90;;;;;;5025387;28;20063;-63
2022/09/12 06:28:34;;;;;;;18.88;9.52;;;13.20;99.90;;;;;;5028547;28;20022;-64
2022/09/12 06:31:06;;;;;;;22.52;10.07;;;13.40;99.90;;;;;;5026519;28;20083;-63
2022/09/12 06:33:37;;;;;;;18.75;9.13;;;13.60;99.90;;;;;;5024586;28;20079;-63
2022/09/12 06:36:08;;;;;;;20.27;9.25;;;13.70;99.90;;;;;;5026992;28;20060;-63
2022/09/12 06:38:34;;;;;;;19.50;9.02;;;13.90;99.90;;;;;;5042328;28;20081;-63
2022/09/12 06:41:03;;;;;;;17.52;8.05;;;14.10;99.90;;;;;;5025265;28;20045;-63
2022/09/12 06:43:30;;;;;;;15.73;7.82;;;14.30;99.90;;;;;;5027011;28;20052;-64
2022/09/12 06:45:56;;;;;;;14.43;7.68;;;14.50;99.90;;;;;;5026536;28;20071;-63
2022/09/12 06:48:21;;;;;;;14.88;7.72;;;14.60;99.90;;;;;;5026681;28;20095;-63
2022/09/12 06:50:59;;;;;;;14.73;6.97;;;14.90;99.90;;;;;;5027036;28;20033;-63
2022/09/12 06:53:26;;;;;;;16.05;7.30;;;15.20;99.90;;;;;;5022871;28;20055;-63
2022/09/12 06:55:56;;;;;;;14.80;6.90;;;15.40;99.90;;;;;;5018184;28;20025;-63
2022/09/12 06:58:23;;;;;;;15.98;7.20;;;15.70;99.90;;;;;;5025290;28;20028;-63
2022/09/12 07:00:49;;;;;;;13.52;6.22;;;15.70;99.90;;;;;;5029177;28;20397;-63
2022/09/12 07:03:14;;;;;;;14.10;6.55;;;15.90;99.90;;;;;;5026977;28;20029;-64
2022/09/12 07:05:40;;;;;;;14.85;6.45;;;15.90;99.90;;;;;;5026493;28;20030;-63
2022/09/12 07:08:05;;;;;;;16.10;6.90;;;16.10;99.90;;;;;;5023353;28;20060;-63
2022/09/12 07:10:31;;;;;;;15.13;7.07;;;16.10;99.90;;;;;;5026272;28;20027;-64
2022/09/12 07:12:57;;;;;;;14.52;7.03;;;16.20;99.90;;;;;;5016848;28;20080;-63
2022/09/12 07:15:23;;;;;;;15.00;6.78;;;16.30;99.90;;;;;;5021594;28;20335;-63
2022/09/12 07:17:49;;;;;;;15.80;6.20;;;16.30;99.90;;;;;;5037051;28;20018;-63
2022/09/12 07:20:15;;;;;;;13.25;6.68;;;16.50;99.90;;;;;;5025547;28;20080;-64
2022/09/12 07:22:41;;;;;;;14.32;6.90;;;16.70;99.90;;;;;;5026450;28;20034;-63
2022/09/12 07:25:07;;;;;;;19.08;7.80;;;16.70;99.90;;;;;;5023801;28;20025;-63
2022/09/12 07:27:33;;;;;;;13.65;7.13;;;16.90;99.90;;;;;;5026271;28;20084;-64
2022/09/12 07:29:59;;;;;;;15.95;6.78;;;17.20;99.90;;;;;;5025714;28;20025;-64
2022/09/12 07:32:25;;;;;;;16.00;7.22;;;17.40;99.90;;;;;;5024615;28;20036;-65
2022/09/12 07:34:51;;;;;;;15.65;6.95;;;17.60;99.90;;;;;;5025999;28;20458;-64
2022/09/12 07:37:17;;;;;;;13.35;6.35;;;17.80;99.90;;;;;;5041118;28;20133;-63
2022/09/12 07:39:43;;;;;;;13.52;6.47;;;18.00;99.90;;;;;;5027195;28;20357;-64
2022/09/12 07:42:10;;;;;;;14.10;6.40;;;18.20;99.90;;;;;;5026493;28;20056;-64
2022/09/12 07:44:35;;;;;;;11.65;6.10;;;18.60;99.90;;;;;;5025716;28;20128;-64
2022/09/12 07:47:01;;;;;;;12.88;6.03;;;18.90;99.90;;;;;;5025333;28;20392;-64
2022/09/12 07:49:27;;;;;;;12.23;6.43;;;19.10;99.90;;;;;;5027095;28;20061;-64
2022/09/12 07:51:53;;;;;;;15.07;6.53;;;19.10;99.90;;;;;;5024217;28;20124;-64
2022/09/12 07:54:19;;;;;;;12.95;6.43;;;19.00;99.90;;;;;;5025318;28;20560;-63
2022/09/12 07:56:44;;;;;;;12.82;6.28;;;18.90;99.90;;;;;;5025715;28;20587;-63
2022/09/12 07:59:10;;;;;;;11.77;6.07;;;18.70;99.90;;;;;;5025522;28;20422;-64
2022/09/12 08:01:36;;;;;;;14.15;6.25;;;18.80;99.90;;;;;;5026012;28;20121;-63
2022/09/12 08:04:03;;;;;;;15.80;6.60;;;19.00;99.90;;;;;;5024957;28;20079;-64
2022/09/12 08:06:31;;;;;;;13.88;6.35;;;19.00;99.90;;;;;;5032064;28;20137;-63
2022/09/12 08:08:58;;;;;;;16.77;6.82;;;19.10;99.90;;;;;;5025149;28;20028;-64
2022/09/12 08:11:26;;;;;;;13.98;6.45;;;19.20;99.90;;;;;;5038250;28;20031;-64
2022/09/12 08:13:53;;;;;;;14.70;7.10;;;19.10;99.90;;;;;;5025553;28;20048;-64
2022/09/12 08:16:21;;;;;;;14.57;6.75;;;19.10;99.90;;;;;;5023494;28;20021;-64
2022/09/12 08:18:48;;;;;;;15.35;7.35;;;19.00;99.90;;;;;;5026797;28;20395;-64
2022/09/12 08:21:19;;;;;;;15.30;6.95;;;19.00;99.90;;;;;;5027517;28;20109;-63
2022/09/12 08:23:46;;;;;;;14.65;6.82;;;18.70;99.90;;;;;;5029704;28;20135;-64
2022/09/12 08:26:12;;;;;;;14.23;7.15;;;18.70;99.90;;;;;;5028864;28;20041;-64
2022/09/12 08:28:39;;;;;;;14.63;7.07;;;18.80;99.90;;;;;;5030539;28;20471;-64
2022/09/12 08:31:11;;;;;;;18.73;8.18;;;18.90;99.90;;;;;;5027604;28;20916;-64
2022/09/12 08:33:37;;;;;;;14.57;6.82;;;19.20;99.90;;;;;;5027958;28;20040;-64
2022/09/12 08:36:16;;;;;;;17.23;7.88;;;19.30;99.90;;;;;;5027460;28;20036;-63
2022/09/12 08:38:44;;;;;;;14.35;6.60;;;19.30;99.90;;;;;;5029516;28;20022;-63
2022/09/12 08:41:36;;;;;;;15.88;7.22;;;19.70;99.90;;;;;;5042339;28;20037;-63
2022/09/12 08:44:05;;;;;;;14.05;7.03;;;20.20;99.90;;;;;;5025132;28;20752;-64
2022/09/12 08:46:41;;;;;;;13.70;6.70;;;20.50;99.90;;;;;;5029183;28;20525;-63
2022/09/12 08:49:11;;;;;;;14.25;7.20;;;20.80;99.90;;;;;;5028649;28;20029;-64
2022/09/12 08:51:37;;;;;;;;;;;20.80;99.90;;;;;;5028157;28;20509;-63
2022/09/12 08:54:08;;;;;;;15.90;6.50;;;20.80;99.90;;;;;;5028828;28;19913;-64
2022/09/12 08:56:36;;;;;;;12.85;6.22;;;20.70;99.90;;;;;;5027187;28;20532;-64
2022/09/12 08:59:02;;;;;;;16.50;7.03;;;20.70;99.90;;;;;;5029903;28;20045;-64
2022/09/12 09:01:41;;;;;;;12.57;5.78;;;20.60;99.90;;;;;;5031710;28;20368;-64
2022/09/12 09:04:51;;;;;;;13.38;6.15;;;20.40;99.90;;;;;;5030390;28;20056;-63
2022/09/12 09:07:51;;;;;;;12.23;6.03;;;20.80;99.90;;;;;;5015810;28;20037;-64
2022/09/12 09:10:26;;;;;;;;;;;21.10;99.90;;;;;;5029234;28;20112;-64
2022/09/12 09:13:06;;;;;;;14.27;5.97;;;21.30;99.90;;;;;;5023847;28;20345;-64
2022/09/12 09:15:44;;;;;;;15.00;6.55;;;21.50;99.90;;;;;;5027168;28;20381;-63
2022/09/12 09:18:13;;;;;;;13.30;6.43;;;21.60;99.90;;;;;;5028214;28;20424;-64
2022/09/12 09:20:59;;;;;;;12.07;5.80;;;21.90;99.90;;;;;;5021063;28;20061;-63
2022/09/12 09:23:32;;;;;;;13.40;6.07;;;22.00;99.90;;;;;;5027193;28;20549;-63
2022/09/12 09:26:06;;;;;;;13.65;5.85;;;22.50;99.90;;;;;;5031206;28;20036;-64
2022/09/12 09:28:46;;;;;;;12.70;6.18;;;22.80;99.90;;;;;;5025167;28;20168;-64
2022/09/12 09:31:23;;;;;;;13.23;6.32;;;22.90;99.90;;;;;;5027853;28;20032;-64
2022/09/12 09:33:52;;;;;;;12.20;5.95;;;23.00;99.90;;;;;;5023442;28;20098;-64
2022/09/12 09:36:56;;;;;;;11.13;5.68;;;23.70;99.90;;;;;;5022934;28;20388;-64
2022/09/12 09:39:42;;;;;;;12.45;5.68;;;23.40;99.90;;;;;;5014249;28;20079;-63
2022/09/12 09:42:40;;;;;;;11.35;5.68;;;22.90;99.90;;;;;;5036778;28;20026;-64
2022/09/12 09:45:18;;;;;;;11.45;5.65;;;22.50;99.90;;;;;;5025574;28;20100;-64
2022/09/12 09:47:57;;;;;;;12.77;5.40;;;22.30;99.90;;;;;;5025954;28;20029;-64
2022/09/12 09:50:23;;;;;;;10.45;5.05;;;22.50;99.90;;;;;;5027116;28;20175;-64
2022/09/12 09:52:51;;;;;;;11.73;6.30;;;22.80;99.90;;;;;;5028255;28;20121;-64
2022/09/12 09:55:24;;;;;;;11.32;4.80;;;23.50;99.90;;;;;;5027317;28;20064;-64
2022/09/12 09:57:51;;;;;;;10.95;4.70;;;24.20;99.90;;;;;;5024066;28;20024;-65
2022/09/12 10:00:32;;;;;;;11.95;5.03;;;24.40;99.90;;;;;;5024282;28;20017;-64
2022/09/12 10:03:06;;;;;;;10.90;5.10;;;25.10;99.90;;;;;;5022137;28;20064;-64
2022/09/12 10:05:42;;;;;;;11.73;5.15;;;25.30;99.90;;;;;;5027962;28;20594;-64
2022/09/12 10:08:09;;;;;;;12.77;4.70;;;26.10;99.90;;;;;;5019873;28;20095;-64
2022/09/12 10:10:34;;;;;;;9.35;4.20;;;26.90;99.80;;;;;;5042671;28;20053;-64
2022/09/12 10:13:26;;;;;;;10.98;4.45;;;27.60;95.40;;;;;;5024531;28;20107;-64
2022/09/12 10:15:57;;;;;;;9.65;4.50;;;26.90;96.40;;;;;;5027826;28;20021;-64
2022/09/12 10:18:42;;;;;;;9.45;4.40;;;26.70;96.60;;;;;;5027133;28;20021;-63
2022/09/12 10:21:38;;;;;;;10.02;5.05;;;26.20;98.00;;;;;;5027531;28;20063;-63
2022/09/12 10:24:11;;;;;;;11.75;4.47;;;25.70;97.90;;;;;;5024463;28;20412;-64
2022/09/12 10:26:39;;;;;;;9.32;4.80;;;26.00;98.70;;;;;;5027459;28;20033;-64
2022/09/12 10:29:30;;;;;;;8.93;4.10;;;27.00;97.20;;;;;;5026941;28;20742;-64
2022/09/12 10:32:04;;;;;;;8.70;4.10;;;28.50;94.30;;;;;;5042053;28;20043;-64
2022/09/12 10:34:41;;;;;;;8.52;3.65;;;29.30;91.70;;;;;;5023016;28;20036;-65
2022/09/12 10:37:14;;;;;;;9.82;4.18;;;29.90;90.20;;;;;;5024008;28;20029;-64
2022/09/12 10:39:40;;;;;;;10.10;4.00;;;29.40;90.10;;;;;;5027347;28;20026;-64
2022/09/12 10:42:06;;;;;;;8.05;3.58;;;29.60;89.00;;;;;;5025250;28;20679;-64
2022/09/12 10:44:34;;;;;;;7.78;3.40;;;29.40;88.30;;;;;;5027164;28;20033;-65
2022/09/12 10:47:20;;;;;;;8.38;3.35;;;29.40;90.10;;;;;;5025779;28;20362;-64
2022/09/12 10:49:45;;;;;;;8.90;3.60;;;30.00;86.60;;;;;;5018198;28;20025;-64
2022/09/12 10:52:22;;;;;;;6.68;3.22;;;31.10;82.60;;;;;;5026418;28;20400;-64
2022/09/12 10:54:48;;;;;;;6.85;3.10;;;31.10;83.20;;;;;;5027102;28;20134;-64
2022/09/12 10:57:21;;;;;;;7.15;3.35;;;30.20;82.00;;;;;;5026479;28;20029;-64
2022/09/12 10:59:53;;;;;;;8.25;3.00;;;30.20;83.30;;;;;;5026813;28;20052;-64
2022/09/12 11:02:27;;;;;;;6.82;3.38;;;29.00;84.50;;;;;;5028959;28;20025;-64
2022/09/12 11:05:14;;;;;;;7.68;3.30;;;29.30;84.10;;;;;;5040881;28;20037;-63
2022/09/12 11:08:05;;;;;;;6.65;3.20;;;28.60;83.40;;;;;;5040912;28;20124;-63
2022/09/12 11:10:48;;;;;;;6.20;2.70;;;28.90;86.00;;;;;;5025408;28;20028;-64
2022/09/12 11:13:28;;;;;;;6.30;3.10;;;28.50;83.60;;;;;;5022105;28;20014;-64
2022/09/12 11:16:10;;;;;;;6.68;2.88;;;29.10;84.10;;;;;;5026274;28;20029;-63
2022/09/12 11:19:02;;;;;;;6.15;2.72;;;29.60;81.70;;;;;;5023510;28;20037;-64
2022/09/12 11:22:03;;;;;;;10.10;3.40;;;28.80;82.30;;;;;;5024694;28;20125;-64
2022/09/12 11:24:46;;;;;;;8.02;3.45;;;28.90;85.80;;;;;;5022602;28;20030;-63
2022/09/12 11:27:25;;;;;;;12.02;3.33;;;29.40;82.10;;;;;;5025903;28;20119;-64
2022/09/12 11:29:57;;;;;;;6.85;2.88;;;28.80;83.20;;;;;;5024383;28;20112;-63
2022/09/12 11:32:38;;;;;;;6.72;2.90;;;29.80;81.70;;;;;;5025337;28;20025;-65
2022/09/12 11:35:33;;;;;;;7.65;2.90;;;30.30;80.50;;;;;;5026221;28;20023;-64
2022/09/12 11:38:25;;;;;;;6.57;2.90;;;29.70;78.40;;;;;;5025339;28;20063;-63
2022/09/12 11:40:58;;;;;;;9.18;3.10;;;28.10;82.20;;;;;;5025097;28;20052;-64
2022/09/12 11:43:48;;;;;;;6.88;2.63;;;28.20;82.70;;;;;;5028223;28;20026;-64
2022/09/12 11:46:23;;;;;;;7.25;2.88;;;29.60;80.90;;;;;;5025736;28;20025;-64
2022/09/12 11:49:07;;;;;;;7.28;2.70;;;31.40;76.90;;;;;;5026180;28;20036;-64
2022/09/12 11:51:39;;;;;;;6.93;2.90;;;31.30;75.40;;;;;;5025403;28;20350;-66
2022/09/12 11:54:31;;;;;;;6.30;2.63;;;31.70;74.10;;;;;;5024657;28;20029;-64
2022/09/12 11:57:07;;;;;;;7.80;3.10;;;32.30;73.00;;;;;;5022940;28;20456;-65
2022/09/12 11:59:36;;;;;;;7.15;2.95;;;32.80;73.00;;;;;;5026131;28;20059;-65
2022/09/12 12:02:02;;;;;;;6.43;2.77;;;32.80;71.60;;;;;;5025914;28;20611;-66
2022/09/12 12:04:42;;;;;;;6.78;3.15;;;32.70;71.10;;;;;;5025271;28;20276;-64
2022/09/12 12:07:10;;;;;;;7.00;2.83;;;33.00;70.40;;;;;;5025085;28;20037;-66
2022/09/12 12:09:46;;;;;;;7.22;2.80;;;32.60;70.50;;;;;;5040847;28;20037;-64
2022/09/12 12:12:18;;;;;;;7.15;2.90;;;32.50;71.20;;;;;;5021413;28;20040;-64
2022/09/12 12:14:48;;;;;;;6.68;2.90;;;32.50;71.90;;;;;;5024105;28;20030;-64
2022/09/12 12:17:19;;;;;;;5.90;2.80;;;30.60;73.10;;;;;;5021370;28;20493;-64
2022/09/12 12:19:47;;;;;;;6.85;2.95;;;29.00;76.60;;;;;;5024532;28;20033;-65
2022/09/12 12:22:20;;;;;;;9.13;3.13;;;29.00;75.70;;;;;;5026426;28;20046;-64
2022/09/12 12:25:11;;;;;;;7.28;2.75;;;30.60;74.30;;;;;;5027159;28;20504;-65
2022/09/12 12:28:06;;;;;;;9.00;2.95;;;32.00;71.60;;;;;;5023631;28;20037;-65
2022/09/12 12:30:32;;;;;;;8.38;2.85;;;33.80;67.40;;;;;;5030111;28;20064;-65
2022/09/12 12:33:11;;;;;;;6.80;2.70;;;32.00;69.30;;;;;;5041729;28;20457;-65
2022/09/12 12:35:37;;;;;;;;;;;32.90;68.70;;;;;;5041311;28;20021;-65
2022/09/12 12:38:23;;;;;;;6.05;2.63;;;33.40;66.50;;;;;;5025358;28;20370;-65
2022/09/12 12:40:49;;;;;;;6.43;2.72;;;33.50;67.20;;;;;;5022494;28;20106;-65
2022/09/12 12:43:33;;;;;;;7.13;2.78;;;32.80;68.30;;;;;;5023599;28;20746;-65
2022/09/12 12:46:02;;;;;;;7.20;2.80;;;31.80;68.90;;;;;;5025723;28;20038;-65
2022/09/12 12:48:32;;;;;;;8.00;2.70;;;32.20;68.40;;;;;;5024815;28;20030;-64
2022/09/12 12:51:39;;;;;;;7.90;2.70;;;32.70;67.60;;;;;;5021966;28;20060;-64
2022/09/12 12:54:27;;;;;;;6.53;2.50;;;33.00;68.20;;;;;;5010516;28;20037;-64
2022/09/12 12:57:29;;;;;;;6.85;2.40;;;34.20;64.90;;;;;;5022086;28;20492;-65
2022/09/12 13:00:07;;;;;;;7.13;2.67;;;33.50;63.40;;;;;;5022567;28;20049;-65
2022/09/12 13:02:40;;;;;;;6.05;2.60;;;33.60;64.20;;;;;;5018322;28;20418;-66
2022/09/12 13:05:17;;;;;;;9.52;2.60;;;34.30;64.60;;;;;;5028026;28;20032;-65